createdAt,value
2022-09-25T00:01:19.356Z,0.40
2022-09-25T00:03:49.197Z,0.43
2022-09-25T00:06:19.641Z,0.43
2022-09-25T00:08:47.828Z,0.40
2022-09-25T00:11:18.612Z,0.50
2022-09-25T00:13:47.318Z,0.50
2022-09-25T00:16:17.515Z,0.63
2022-09-25T00:19:03.509Z,0.52
2022-09-25T00:21:33.726Z,0.50
2022-09-25T00:24:03.681Z,0.50
2022-09-25T00:26:34.337Z,0.50
2022-09-25T00:29:02.966Z,0.25
2022-09-25T00:31:32.551Z,0.60
2022-09-25T00:34:02.473Z,0.43
2022-09-25T00:36:32.274Z,0.52
2022-09-25T00:39:00.356Z,0.70
2022-09-25T00:41:30.179Z,0.40
2022-09-25T00:43:59.372Z,0.50
2022-09-25T00:46:31.742Z,0.90
2022-09-25T00:49:03.382Z,0.57
2022-09-25T00:51:38.526Z,0.50
2022-09-25T00:54:09.568Z,0.45
2022-09-25T00:56:41.136Z,0.60
2022-09-25T00:59:12.833Z,0.50
2022-09-25T01:01:41.265Z,0.47
2022-09-25T01:04:13.251Z,0.30
2022-09-25T01:06:43.580Z,0.40
2022-09-25T01:09:12.125Z,0.40
2022-09-25T01:11:40.619Z,0.60
2022-09-25T01:14:10.731Z,0.52
2022-09-25T01:16:46.756Z,0.70
2022-09-25T01:19:28.340Z,0.80
2022-09-25T01:22:06.403Z,0.52
2022-09-25T01:25:03.114Z,0.60
2022-09-25T01:27:46.104Z,0.70
2022-09-25T01:30:18.268Z,0.45
2022-09-25T01:32:59.946Z,0.60
2022-09-25T01:35:37.914Z,0.68
2022-09-25T01:38:15.273Z,0.75
2022-09-25T01:40:52.982Z,0.70
2022-09-25T01:43:27.264Z,0.40
2022-09-25T01:45:59.602Z,0.68
2022-09-25T01:48:29.972Z,0.60
2022-09-25T01:51:02.319Z,0.70
2022-09-25T01:53:34.781Z,0.60
2022-09-25T01:56:09.612Z,0.70
2022-09-25T01:58:43.053Z,1.02
2022-09-25T02:01:18.053Z,0.85
2022-09-25T02:03:52.267Z,0.70
2022-09-25T02:06:21.974Z,0.80
2022-09-25T02:08:54.426Z,0.57
2022-09-25T02:11:23.862Z,0.70
2022-09-25T02:13:58.163Z,0.55
2022-09-25T02:16:35.598Z,0.60
2022-09-25T02:19:21.516Z,0.57
2022-09-25T02:21:56.321Z,0.65
2022-09-25T02:24:31.085Z,0.80
2022-09-25T02:26:59.062Z,0.73
2022-09-25T02:29:27.100Z,0.80
2022-09-25T02:32:00.505Z,0.80
2022-09-25T02:34:28.647Z,0.70
2022-09-25T02:36:56.817Z,0.70
2022-09-25T02:39:27.714Z,0.93
2022-09-25T02:42:07.451Z,0.98
2022-09-25T02:44:47.725Z,0.88
2022-09-25T02:47:25.363Z,1.20
2022-09-25T02:50:05.502Z,0.80
2022-09-25T02:52:38.084Z,0.90
2022-09-25T02:55:11.076Z,0.70
2022-09-25T02:57:47.151Z,1.00
2022-09-25T03:00:16.204Z,1.48
2022-09-25T03:02:52.305Z,1.52
2022-09-25T03:05:22.249Z,3.00
2022-09-25T03:08:08.013Z,2.20
2022-09-25T03:10:37.904Z,0.90
2022-09-25T03:13:17.829Z,1.20
2022-09-25T03:15:48.051Z,0.70
2022-09-25T03:18:18.265Z,1.08
2022-09-25T03:20:46.384Z,0.80
2022-09-25T03:23:14.413Z,0.93
2022-09-25T03:25:47.446Z,1.02
2022-09-25T03:28:18.959Z,1.10
2022-09-25T03:30:58.338Z,1.15
2022-09-25T03:33:29.011Z,1.42
2022-09-25T03:36:09.702Z,1.30
2022-09-25T03:38:38.048Z,1.20
2022-09-25T03:41:09.473Z,1.30
2022-09-25T03:43:37.712Z,1.40
2022-09-25T03:46:06.183Z,1.30
2022-09-25T03:48:36.103Z,1.33
2022-09-25T03:51:04.336Z,1.00
2022-09-25T03:53:33.457Z,1.52
2022-09-25T03:56:01.807Z,1.30
2022-09-25T03:58:29.808Z,1.52
2022-09-25T04:00:58.312Z,2.80
2022-09-25T04:03:27.993Z,2.33
2022-09-25T04:05:58.943Z,1.95
2022-09-25T04:08:27.942Z,1.90
2022-09-25T04:10:56.527Z,1.92
2022-09-25T04:13:25.031Z,1.90
2022-09-25T04:15:53.396Z,1.77
2022-09-25T04:18:21.353Z,1.48
2022-09-25T04:20:49.503Z,1.00
2022-09-25T04:23:19.090Z,1.00
2022-09-25T04:25:46.994Z,0.93
2022-09-25T04:28:14.916Z,0.80
2022-09-25T04:30:42.916Z,0.65
2022-09-25T04:33:28.760Z,0.82
2022-09-25T04:35:57.031Z,1.15
2022-09-25T04:38:26.528Z,0.75
2022-09-25T04:40:54.683Z,0.85
2022-09-25T04:43:22.898Z,0.95
2022-09-25T04:45:51.737Z,0.65
2022-09-25T04:48:19.733Z,0.90
2022-09-25T04:50:51.001Z,1.08
2022-09-25T04:53:19.468Z,0.75
2022-09-25T04:55:48.764Z,0.70
2022-09-25T04:58:16.711Z,1.00
2022-09-25T05:00:44.677Z,1.33
2022-09-25T05:03:12.792Z,1.92
2022-09-25T05:05:40.837Z,1.75
2022-09-25T05:08:08.778Z,1.80
2022-09-25T05:10:39.650Z,1.77
2022-09-25T05:13:10.245Z,1.33
2022-09-25T05:15:38.234Z,1.10
2022-09-25T05:18:08.261Z,1.02
2022-09-25T05:20:37.156Z,1.10
2022-09-25T05:23:05.261Z,1.00
2022-09-25T05:25:33.594Z,1.13
2022-09-25T05:28:02.588Z,1.00
2022-09-25T05:30:34.256Z,1.20
2022-09-25T05:33:02.533Z,1.10
2022-09-25T05:35:32.998Z,1.10
2022-09-25T05:38:01.009Z,1.10
2022-09-25T05:40:29.353Z,1.17
2022-09-25T05:42:58.458Z,1.30
2022-09-25T05:45:26.436Z,1.20
2022-09-25T05:48:03.094Z,1.20
2022-09-25T05:50:32.458Z,1.00
2022-09-25T05:53:01.601Z,1.30
2022-09-25T05:55:29.863Z,0.90
2022-09-25T05:58:02.598Z,1.23
2022-09-25T06:00:32.792Z,0.95
2022-09-25T06:03:02.746Z,1.10
2022-09-25T06:05:31.201Z,1.30
2022-09-25T06:07:59.160Z,1.35
2022-09-25T06:10:28.086Z,1.45
2022-09-25T06:12:59.712Z,1.63
2022-09-25T06:15:28.101Z,1.40
2022-09-25T06:17:56.855Z,1.48
2022-09-25T06:20:26.280Z,1.35
2022-09-25T06:22:54.747Z,1.70
2022-09-25T06:25:23.884Z,1.40
2022-09-25T06:27:54.177Z,1.05
2022-09-25T06:30:22.635Z,1.30
2022-09-25T06:32:51.585Z,1.00
2022-09-25T06:35:19.488Z,1.23
2022-09-25T06:37:48.971Z,1.00
2022-09-25T06:40:17.270Z,1.20
2022-09-25T06:42:46.213Z,1.10
2022-09-25T06:45:14.210Z,1.10
2022-09-25T06:47:42.138Z,1.20
2022-09-25T06:50:11.974Z,0.98
2022-09-25T06:52:43.596Z,1.10
2022-09-25T06:55:13.088Z,1.17
2022-09-25T06:57:41.032Z,1.40
2022-09-25T07:00:10.197Z,1.20
2022-09-25T07:02:55.942Z,1.05
2022-09-25T07:05:23.965Z,1.10
2022-09-25T07:07:51.873Z,1.23
2022-09-25T07:10:21.510Z,1.30
2022-09-25T07:12:49.480Z,1.33
2022-09-25T07:15:18.699Z,1.30
2022-09-25T07:17:47.282Z,1.30
2022-09-25T07:20:15.404Z,1.35
2022-09-25T07:22:43.618Z,1.25
2022-09-25T07:25:12.814Z,1.52
2022-09-25T07:27:42.174Z,1.02
2022-09-25T07:30:11.154Z,0.80
2022-09-25T07:32:39.169Z,1.15
2022-09-25T07:35:07.699Z,1.05
2022-09-25T07:37:35.626Z,1.05
2022-09-25T07:40:03.592Z,1.00
2022-09-25T07:42:31.632Z,1.20
2022-09-25T07:45:00.899Z,0.90
2022-09-25T07:47:28.978Z,1.05
2022-09-25T07:49:56.876Z,1.23
2022-09-25T07:52:24.889Z,0.90
2022-09-25T07:54:52.965Z,1.60
2022-09-25T07:57:21.379Z,1.80
2022-09-25T07:59:49.467Z,1.67
2022-09-25T08:02:18.968Z,1.58
2022-09-25T08:04:46.953Z,1.55
2022-09-25T08:07:14.877Z,1.20
2022-09-25T08:09:42.944Z,1.13
2022-09-25T08:12:12.951Z,1.20
2022-09-25T08:14:41.833Z,1.40
2022-09-25T08:17:09.755Z,1.27
2022-09-25T08:19:39.111Z,1.33
2022-09-25T08:22:07.080Z,1.90
2022-09-25T08:24:35.039Z,2.00
2022-09-25T08:27:02.958Z,2.22
2022-09-25T08:29:31.115Z,2.28
2022-09-25T08:31:59.072Z,2.10
2022-09-25T08:34:42.794Z,1.95
2022-09-25T08:37:12.898Z,1.90
2022-09-25T08:39:40.941Z,1.70
2022-09-25T08:42:18.863Z,1.63
2022-09-25T08:45:21.188Z,1.42
2022-09-25T08:48:11.972Z,1.60
2022-09-25T08:50:40.164Z,1.83
2022-09-25T08:53:16.852Z,1.50
2022-09-25T08:56:02.324Z,1.60
2022-09-25T08:58:34.535Z,1.55
2022-09-25T09:01:07.346Z,1.10
2022-09-25T09:03:48.881Z,1.35
2022-09-25T09:06:19.075Z,1.60
2022-09-25T09:08:55.063Z,1.98
2022-09-25T09:11:28.950Z,1.70
2022-09-25T09:14:03.381Z,2.20
2022-09-25T09:16:38.321Z,2.10
2022-09-25T09:19:08.459Z,1.90
2022-09-25T09:21:38.289Z,2.10
2022-09-25T09:24:17.178Z,2.33
2022-09-25T09:27:13.749Z,2.50
2022-09-25T09:30:05.187Z,2.33
2022-09-25T09:32:46.386Z,2.50
2022-09-25T09:35:31.250Z,2.90
2022-09-25T09:38:11.940Z,2.85
2022-09-25T09:40:55.790Z,2.22
2022-09-25T09:43:36.851Z,2.10
2022-09-25T09:46:14.242Z,2.22
2022-09-25T09:48:55.922Z,1.85
2022-09-25T09:51:27.822Z,2.00
2022-09-25T09:53:59.815Z,1.60
2022-09-25T09:56:32.389Z,2.15
2022-09-25T09:59:03.969Z,2.17
2022-09-25T10:01:41.182Z,2.20
2022-09-25T10:04:13.026Z,2.30
2022-09-25T10:06:47.845Z,2.33
2022-09-25T10:09:17.308Z,2.08
2022-09-25T10:11:52.362Z,2.45
2022-09-25T10:14:22.922Z,2.15
2022-09-25T10:16:52.184Z,2.13
2022-09-25T10:19:23.487Z,2.38
2022-09-25T10:21:54.878Z,1.92
2022-09-25T10:24:49.817Z,2.35
2022-09-25T10:27:27.749Z,2.15
2022-09-25T10:30:03.238Z,2.20
2022-09-25T10:32:33.673Z,2.50
2022-09-25T10:35:02.169Z,1.92
2022-09-25T10:37:35.947Z,1.35
2022-09-25T10:40:06.318Z,1.00
2022-09-25T10:42:41.341Z,1.10
2022-09-25T10:45:31.148Z,2.65
2022-09-25T10:48:16.877Z,3.72
2022-09-25T10:50:45.520Z,2.30
2022-09-25T10:53:30.592Z,1.20
2022-09-25T10:56:06.319Z,1.02
2022-09-25T10:58:40.750Z,1.20
2022-09-25T11:01:13.592Z,1.80
2022-09-25T11:03:50.983Z,1.48
2022-09-25T11:06:23.452Z,1.45
2022-09-25T11:08:58.785Z,1.45
2022-09-25T11:11:27.398Z,1.27
2022-09-25T11:13:59.906Z,1.65
2022-09-25T11:16:46.957Z,1.83
2022-09-25T11:19:17.625Z,1.58
2022-09-25T11:21:57.069Z,2.00
2022-09-25T11:24:30.439Z,2.00
2022-09-25T11:27:05.278Z,1.88
2022-09-25T11:29:44.384Z,1.60
2022-09-25T11:32:20.856Z,1.88
2022-09-25T11:35:04.711Z,1.83
2022-09-25T11:37:39.451Z,1.80
2022-09-25T11:40:43.092Z,1.98
2022-09-25T11:43:15.409Z,1.48
2022-09-25T11:45:49.381Z,1.65
2022-09-25T11:48:25.127Z,1.88
2022-09-25T11:51:00.683Z,1.70
2022-09-25T11:53:38.134Z,1.73
2022-09-25T11:56:19.916Z,1.48
2022-09-25T11:59:01.877Z,1.83
2022-09-25T12:01:36.301Z,1.90
2022-09-25T12:04:28.955Z,2.05
2022-09-25T12:07:10.197Z,2.22
2022-09-25T12:09:57.566Z,1.90
2022-09-25T12:12:33.159Z,1.90
2022-09-25T12:15:14.394Z,1.52
2022-09-25T12:17:54.795Z,1.55
2022-09-25T12:20:32.333Z,1.92
2022-09-25T12:23:15.872Z,1.83
2022-09-25T12:26:02.790Z,1.92
2022-09-25T12:28:40.763Z,1.60
2022-09-25T12:31:17.539Z,1.88
2022-09-25T12:33:56.956Z,1.40
2022-09-25T12:36:36.455Z,1.98
2022-09-25T12:39:18.411Z,1.67
2022-09-25T12:41:51.788Z,1.52
2022-09-25T12:44:27.258Z,1.70
2022-09-25T12:47:01.871Z,1.65
2022-09-25T12:49:36.187Z,1.73
2022-09-25T12:52:10.644Z,1.70
2022-09-25T12:54:47.707Z,1.38
2022-09-25T12:57:22.720Z,1.55
2022-09-25T12:59:57.026Z,1.55
2022-09-25T13:02:32.722Z,1.23
2022-09-25T13:05:09.328Z,1.00
2022-09-25T13:07:43.500Z,1.17
2022-09-25T13:10:26.466Z,1.10
2022-09-25T13:12:58.213Z,1.30
2022-09-25T13:15:29.949Z,1.70
2022-09-25T13:17:59.111Z,1.30
2022-09-25T13:20:49.457Z,1.20
2022-09-25T13:23:27.467Z,1.20
2022-09-25T13:26:00.978Z,1.40
2022-09-25T13:28:32.279Z,0.90
2022-09-25T13:31:08.685Z,1.05
2022-09-25T13:33:46.959Z,0.93
2022-09-25T13:36:32.193Z,1.10
2022-09-25T13:39:20.330Z,0.90
2022-09-25T13:41:55.520Z,0.80
2022-09-25T13:44:52.545Z,0.90
2022-09-25T13:48:06.911Z,0.98
2022-09-25T13:50:40.773Z,1.25
2022-09-25T13:53:27.704Z,0.95
2022-09-25T13:56:30.143Z,1.08
2022-09-25T13:59:26.491Z,1.15
2022-09-25T14:02:00.850Z,1.10
2022-09-25T14:04:38.365Z,1.08
2022-09-25T14:07:14.335Z,1.50
2022-09-25T14:09:49.621Z,1.00
2022-09-25T14:12:27.793Z,1.00
2022-09-25T14:15:00.711Z,1.00
2022-09-25T14:17:32.523Z,1.25
2022-09-25T14:20:06.096Z,1.00
2022-09-25T14:22:44.440Z,1.10
2022-09-25T14:25:34.063Z,0.95
2022-09-25T14:28:02.984Z,1.00
2022-09-25T14:30:32.998Z,1.30
2022-09-25T14:33:15.939Z,1.10
2022-09-25T14:35:52.876Z,1.08
2022-09-25T14:38:37.105Z,0.98
2022-09-25T14:41:35.314Z,1.27
2022-09-25T14:44:23.054Z,1.30
2022-09-25T14:46:52.504Z,1.10
2022-09-25T14:49:25.404Z,1.10
2022-09-25T14:51:57.679Z,1.40
2022-09-25T14:54:31.068Z,1.30
2022-09-25T14:57:00.963Z,0.90
2022-09-25T14:59:37.724Z,0.70
2022-09-25T15:02:05.808Z,0.82
2022-09-25T15:04:34.913Z,0.80
2022-09-25T15:07:08.362Z,1.33
2022-09-25T15:09:38.265Z,1.30
2022-09-25T15:12:18.533Z,1.30
2022-09-25T15:15:04.172Z,1.10
2022-09-25T15:17:32.871Z,1.40
2022-09-25T15:20:04.283Z,1.48
2022-09-25T15:22:35.953Z,1.60
2022-09-25T15:25:07.592Z,1.20
2022-09-25T15:27:43.526Z,1.50
2022-09-25T15:30:16.961Z,1.38
2022-09-25T15:32:48.128Z,1.52
2022-09-25T15:35:19.551Z,1.50
2022-09-25T15:37:48.882Z,1.70
2022-09-25T15:40:25.767Z,1.10
2022-09-25T15:42:56.018Z,1.02
2022-09-25T15:45:40.694Z,1.00
2022-09-25T15:48:23.825Z,0.70
2022-09-25T15:50:53.827Z,0.73
2022-09-25T15:53:26.247Z,0.80
2022-09-25T15:56:05.221Z,1.08
2022-09-25T15:58:42.516Z,0.70
2022-09-25T16:01:32.177Z,0.80
2022-09-25T16:04:19.396Z,1.38
2022-09-25T16:06:50.088Z,1.23
2022-09-25T16:09:32.038Z,0.90
2022-09-25T16:12:19.343Z,1.40
2022-09-25T16:14:49.117Z,1.00
2022-09-25T16:17:24.484Z,1.15
2022-09-25T16:20:04.276Z,2.10
2022-09-25T16:22:39.153Z,2.85
2022-09-25T16:25:19.906Z,3.15
2022-09-25T16:27:48.090Z,2.10
2022-09-25T16:30:22.886Z,1.98
2022-09-25T16:32:53.552Z,1.42
2022-09-25T16:35:50.578Z,1.42
2022-09-25T16:38:28.833Z,0.95
2022-09-25T16:41:07.525Z,0.82
2022-09-25T16:43:36.289Z,1.00
2022-09-25T16:46:14.720Z,0.90
2022-09-25T16:48:46.791Z,0.82
2022-09-25T16:51:22.917Z,0.80
2022-09-25T16:53:52.322Z,0.70
2022-09-25T16:56:22.768Z,0.80
2022-09-25T16:58:50.998Z,0.40
2022-09-25T17:01:21.817Z,0.40
2022-09-25T17:03:52.748Z,0.70
2022-09-25T17:06:21.979Z,0.70
2022-09-25T17:08:51.059Z,0.80
2022-09-25T17:11:21.144Z,0.50
2022-09-25T17:13:50.092Z,0.60
2022-09-25T17:16:18.371Z,0.50
2022-09-25T17:18:48.085Z,0.45
2022-09-25T17:21:16.849Z,0.40
2022-09-25T17:23:46.256Z,0.45
2022-09-25T17:26:17.843Z,0.40
2022-09-25T17:28:45.830Z,0.60
2022-09-25T17:31:16.750Z,0.60
2022-09-25T17:33:45.118Z,0.55
2022-09-25T17:36:14.903Z,0.70
2022-09-25T17:38:42.998Z,0.55
2022-09-25T17:41:19.684Z,0.68
2022-09-25T17:43:48.163Z,0.70
2022-09-25T17:46:16.286Z,0.60
2022-09-25T17:48:44.279Z,0.35
2022-09-25T17:51:16.400Z,0.52
2022-09-25T17:53:45.173Z,0.50
2022-09-25T17:56:14.027Z,0.40
2022-09-25T17:58:44.199Z,0.52
2022-09-25T18:01:21.770Z,0.90
2022-09-25T18:03:50.062Z,1.20
2022-09-25T18:06:20.265Z,1.35
2022-09-25T18:08:49.466Z,1.23
2022-09-25T18:11:18.600Z,1.30
2022-09-25T18:13:47.030Z,1.13
2022-09-25T18:16:18.269Z,0.80
2022-09-25T18:19:04.483Z,0.82
2022-09-25T18:21:56.553Z,0.80
2022-09-25T18:24:24.496Z,0.80
2022-09-25T18:26:54.256Z,1.02
2022-09-25T18:29:22.721Z,0.60
2022-09-25T18:31:50.870Z,0.85
2022-09-25T18:34:21.730Z,0.60
2022-09-25T18:36:51.146Z,0.60
2022-09-25T18:39:20.316Z,0.70
2022-09-25T18:41:48.705Z,0.60
2022-09-25T18:44:17.894Z,0.80
2022-09-25T18:46:46.036Z,0.70
2022-09-25T18:49:14.124Z,0.85
2022-09-25T18:51:42.419Z,0.70
2022-09-25T18:54:13.976Z,0.73
2022-09-25T18:56:41.934Z,0.70
2022-09-25T18:59:09.932Z,1.00
2022-09-25T19:01:39.817Z,0.60
2022-09-25T19:04:08.986Z,0.60
2022-09-25T19:06:36.969Z,0.60
2022-09-25T19:09:05.267Z,0.50
2022-09-25T19:11:34.691Z,0.70
2022-09-25T19:14:04.620Z,0.70
2022-09-25T19:16:38.148Z,0.57
2022-09-25T19:19:07.531Z,0.63
2022-09-25T19:21:35.740Z,0.73
2022-09-25T19:24:03.694Z,0.80
2022-09-25T19:26:31.745Z,1.00
2022-09-25T19:29:01.654Z,0.90
2022-09-25T19:31:30.513Z,0.60
2022-09-25T19:34:01.080Z,1.02
2022-09-25T19:36:32.188Z,0.82
2022-09-25T19:39:01.131Z,0.90
2022-09-25T19:41:31.594Z,0.95
2022-09-25T19:44:05.754Z,0.88
2022-09-25T19:46:36.394Z,1.00
2022-09-25T19:49:05.133Z,0.65
2022-09-25T19:51:33.444Z,0.70
2022-09-25T19:54:01.371Z,0.70
2022-09-25T19:56:29.320Z,0.63
2022-09-25T19:58:57.260Z,0.85
2022-09-25T20:01:30.167Z,0.90
2022-09-25T20:03:58.208Z,0.93
2022-09-25T20:06:27.397Z,1.10
2022-09-25T20:08:58.004Z,0.90
2022-09-25T20:11:26.877Z,0.85
2022-09-25T20:13:55.396Z,0.80
2022-09-25T20:16:27.163Z,0.90
2022-09-25T20:18:57.854Z,0.75
2022-09-25T20:21:26.722Z,0.90
2022-09-25T20:23:57.013Z,0.88
2022-09-25T20:26:25.717Z,0.80
2022-09-25T20:28:55.486Z,0.68
2022-09-25T20:31:23.943Z,0.90
2022-09-25T20:33:54.199Z,0.95
2022-09-25T20:36:23.068Z,0.80
2022-09-25T20:38:51.812Z,0.52
2022-09-25T20:41:20.620Z,0.80
2022-09-25T20:43:51.073Z,0.80
2022-09-25T20:46:20.500Z,0.85
2022-09-25T20:48:51.451Z,0.90
2022-09-25T20:51:24.116Z,1.25
2022-09-25T20:53:53.022Z,1.30
2022-09-25T20:56:21.890Z,1.00
2022-09-25T20:58:53.335Z,1.10
2022-09-25T21:01:23.887Z,1.35
2022-09-25T21:03:53.055Z,1.00
2022-09-25T21:06:24.920Z,1.67
2022-09-25T21:08:54.151Z,1.08
2022-09-25T21:11:22.617Z,1.40
2022-09-25T21:13:52.344Z,1.20
2022-09-25T21:16:22.167Z,1.40
2022-09-25T21:18:53.463Z,1.30
2022-09-25T21:21:24.870Z,1.38
2022-09-25T21:23:55.614Z,1.63
2022-09-25T21:26:25.648Z,1.42
2022-09-25T21:28:55.795Z,1.13
2022-09-25T21:31:25.747Z,1.60
2022-09-25T21:33:54.974Z,1.35
2022-09-25T21:36:25.598Z,1.38
2022-09-25T21:38:53.905Z,1.17
2022-09-25T21:41:24.787Z,1.27
2022-09-25T21:43:54.675Z,1.13
2022-09-25T21:46:22.777Z,1.00
2022-09-25T21:48:52.559Z,1.10
2022-09-25T21:51:22.510Z,1.30
2022-09-25T21:53:53.409Z,1.00
2022-09-25T21:56:24.292Z,1.10
2022-09-25T21:58:54.638Z,1.10
2022-09-25T22:01:25.923Z,1.02
2022-09-25T22:03:57.150Z,1.15
2022-09-25T22:06:27.289Z,0.80
2022-09-25T22:08:58.466Z,1.00
2022-09-25T22:11:27.932Z,1.00
2022-09-25T22:13:57.373Z,1.17
2022-09-25T22:16:27.316Z,1.20
2022-09-25T22:18:57.157Z,1.17
2022-09-25T22:21:27.648Z,1.23
2022-09-25T22:23:57.768Z,1.27
2022-09-25T22:26:27.226Z,1.20
2022-09-25T22:28:55.615Z,1.52
2022-09-25T22:31:25.986Z,1.42
2022-09-25T22:33:56.119Z,1.42
2022-09-25T22:36:25.328Z,1.15
2022-09-25T22:38:53.264Z,1.63
2022-09-25T22:41:23.102Z,1.48
2022-09-25T22:43:52.671Z,1.83
2022-09-25T22:46:21.731Z,1.60
2022-09-25T22:48:49.994Z,2.13
2022-09-25T22:51:19.812Z,1.70
2022-09-25T22:53:48.538Z,1.55
2022-09-25T22:56:18.631Z,1.98
2022-09-25T22:58:49.938Z,2.30
2022-09-25T23:01:21.398Z,2.22
2022-09-25T23:03:49.379Z,2.70
2022-09-25T23:06:17.355Z,2.33
2022-09-25T23:08:45.274Z,2.15
2022-09-25T23:11:13.210Z,2.58
2022-09-25T23:13:41.128Z,2.38
2022-09-25T23:16:10.558Z,2.85
2022-09-25T23:18:58.528Z,2.72
2022-09-25T23:21:27.316Z,2.60
2022-09-25T23:23:56.864Z,2.35
2022-09-25T23:26:25.385Z,2.75
2022-09-25T23:28:53.542Z,2.60
2022-09-25T23:31:23.384Z,2.92
2022-09-25T23:33:51.442Z,3.00
2022-09-25T23:36:21.657Z,3.13
2022-09-25T23:38:50.666Z,3.13
2022-09-25T23:41:21.683Z,2.22
2022-09-25T23:43:51.527Z,2.83
2022-09-25T23:46:21.511Z,2.30
2022-09-25T23:48:51.996Z,2.08
2022-09-25T23:51:21.995Z,2.70
2022-09-25T23:53:50.663Z,2.70
2022-09-25T23:56:21.067Z,3.13
2022-09-25T23:58:50.301Z,2.35
